Vaagsund — 3YOK — position and weather

sailwx.info

Track history (hours):
 
Tides and Currents Weather Stations Pressure Air Temp Water Temp Dewpoint Dewpoint Depression Visibility Wind Speed Wind Dir Waves Ship Positions

Vaagsund

Last reported at 2018-Jun-21 04:00 UTC. Time now 2018-Jun-21 04:21 UTC.
Position N 67°08' E 014°01'.

Length 74 m; draft 3.7 m.

Type: Cargo ship. MMSI: 259991000.

Date/timePositionNaut miles runAvg speedWind from/ knotsBaromVisibWave heightAir tempDewpointWater temp
2018-Jun-21 04:00N 67°08' E 014°01'5 9.1
2018-Jun-21 03:30N 67°12' E 014°07'5 9.1
2018-Jun-21 03:00N 67°15' E 014°15'4 7.9
2018-Jun-21 02:30N 67°17' E 014°23'0 0.0
2018-Jun-21 02:00N 67°17' E 014°23'0 0.0
2018-Jun-21 01:30N 67°17' E 014°23'0 0.0
2018-Jun-21 01:00N 67°17' E 014°23'0 0.0
2018-Jun-21 00:30N 67°17' E 014°23'2 3.2
2018-Jun-21 00:00N 67°19' E 014°22'4 8.4
2018-Jun-20 23:30N 67°23' E 014°23'0 0.0
2018-Jun-20 23:00N 67°23' E 014°23'0 0.0
2018-Jun-20 22:30N 67°23' E 014°23'2 3.1
2018-Jun-20 22:00N 67°24' E 014°25'1 1.0
2018-Jun-20 21:28N 67°25' E 014°25'2 3.4
2018-Jun-20 21:00N 67°26' E 014°27'510.0
2018-Jun-20 20:30N 67°31' E 014°29'5 9.7
2018-Jun-20 20:00N 67°36' E 014°31'5 9.4
2018-Jun-20 19:30N 67°41' E 014°31'5 9.6
2018-Jun-20 19:00N 67°46' E 014°32'5 9.8
2018-Jun-20 18:30N 67°51' E 014°31'5 9.6
2018-Jun-20 18:00N 67°54' E 014°39'5 9.4
2018-Jun-20 17:30N 67°58' E 014°48'5 9.5
2018-Jun-20 17:00N 68°01' E 014°58'5 9.2
2018-Jun-20 16:29N 68°04' E 015°07'5 9.2
2018-Jun-20 16:00N 68°07' E 015°16'5 9.9
2018-Jun-20 15:28N 68°10' E 015°27'510.1
2018-Jun-20 15:00N 68°13' E 015°38'5 9.9
2018-Jun-20 14:30N 68°15' E 015°50'5 9.7
2018-Jun-20 14:00N 68°16' E 016°02'510.8
2018-Jun-20 13:30N 68°12' E 016°10'511.1
2018-Jun-20 13:00N 68°06' E 016°09'4 8.9
2018-Jun-20 12:30N 68°02' E 016°15'0 0.6
2018-Jun-20 11:59N 68°02' E 016°15'0 0.0
2018-Jun-20 11:30N 68°02' E 016°15'0 0.3
2018-Jun-20 11:00N 68°02' E 016°15'4 8.4
2018-Jun-20 10:30N 68°06' E 016°09'510.6
2018-Jun-20 09:59N 68°11' E 016°10'510.2
2018-Jun-20 09:30N 68°15' E 016°05'5 9.9
2018-Jun-20 09:00N 68°20' E 016°01'510.3
2018-Jun-20 08:30N 68°25' E 016°03'510.5
2018-Jun-20 08:00N 68°30' E 016°08'5 9.6
2018-Jun-20 07:30N 68°33' E 016°18'5 9.2
2018-Jun-20 07:00N 68°34' E 016°31'5 8.9
2018-Jun-20 06:30N 68°38' E 016°35'4 8.6
2018-Jun-20 06:00N 68°41' E 016°44'510.4
2018-Jun-20 05:29N 68°43' E 016°57'510.5
2018-Jun-20 05:00N 68°45' E 017°10'3 6.1
2018-Jun-20 04:30N 68°47' E 017°17'0 0.0
2018-Jun-20 04:00N 68°47' E 017°17'2 4.5
2018-Jun-20 03:30N 68°48' E 017°12'4 8.8
2018-Jun-20 03:00N 68°51' E 017°05'4 8.6
2018-Jun-20 02:30N 68°55' E 016°57'4 8.8
2018-Jun-20 02:00N 68°58' E 016°49'4 8.3
2018-Jun-20 01:30N 68°59' E 016°38'3 6.0
2018-Jun-20 01:00N 68°59' E 016°29'0 0.0
2018-Jun-20 00:30N 68°59' E 016°29'1 2.3
2018-Jun-20 00:00N 68°59' E 016°26'4 8.0
2018-Jun-19 23:30N 69°00' E 016°16'4 8.1
2018-Jun-19 23:00N 68°59' E 016°05'4 8.3
2018-Jun-19 22:30N 68°59' E 015°53'4 8.5
2018-Jun-19 22:00N 68°58' E 015°41'4 7.3
2018-Jun-19 21:30N 68°55' E 015°35'4 8.5
2018-Jun-19 21:00N 68°52' E 015°29'3 6.7
2018-Jun-19 20:30N 68°55' E 015°24'4 8.2
2018-Jun-19 19:59N 68°59' E 015°23'3 7.2
2018-Jun-19 19:30N 69°01' E 015°15'4 8.5
2018-Jun-19 19:00N 69°02' E 015°03'4 8.8
2018-Jun-19 18:30N 68°58' E 014°59'5 9.7
2018-Jun-19 18:00N 68°53' E 015°00'5 9.8
2018-Jun-19 17:30N 68°51' E 014°48'1 2.5
2018-Jun-19 17:00N 68°50' E 014°46'0 0.0
2018-Jun-19 16:28N 68°50' E 014°46'0 0.0
2018-Jun-19 16:00N 68°50' E 014°46'2 3.9
2018-Jun-19 15:30N 68°50' E 014°52'1 2.8
2018-Jun-19 15:00N 68°48' E 014°52'0 0.0
2018-Jun-19 14:30N 68°48' E 014°52'0 0.0
2018-Jun-19 14:00N 68°48' E 014°52'4 7.3
2018-Jun-19 13:28N 68°52' E 014°57'4 8.5
2018-Jun-19 13:00N 68°55' E 015°04'0 0.3
2018-Jun-19 12:30N 68°55' E 015°04'0 0.0
2018-Jun-19 11:59N 68°55' E 015°04'0 0.0
2018-Jun-19 11:30N 68°55' E 015°04'0 0.0
2018-Jun-19 11:00N 68°55' E 015°04'0 0.0
2018-Jun-19 10:30N 68°55' E 015°04'0 0.0
2018-Jun-19 10:00N 68°55' E 015°04'0 0.0
2018-Jun-19 09:30N 68°55' E 015°04'0 0.0
2018-Jun-19 09:00N 68°55' E 015°04'0 0.0
2018-Jun-19 08:29N 68°55' E 015°04'0 0.0
2018-Jun-19 08:00N 68°55' E 015°04'0 0.0
2018-Jun-19 07:30N 68°55' E 015°04'0 0.0
2018-Jun-19 07:00N 68°55' E 015°04'0 0.0
2018-Jun-19 06:30N 68°55' E 015°04'0 0.0
2018-Jun-19 06:00N 68°55' E 015°04'0 0.0
2018-Jun-19 05:30N 68°55' E 015°04'0 0.0
2018-Jun-19 05:00N 68°55' E 015°04'0 0.0
2018-Jun-19 04:30N 68°55' E 015°04'0 0.0
2018-Jun-19 04:00N 68°55' E 015°04'0 0.0
2018-Jun-19 03:30N 68°55' E 015°04'1 1.8
2018-Jun-19 03:00N 68°55' E 015°01'5 9.7
2018-Jun-19 02:30N 68°60' E 014°59'5 8.8
2018-Jun-19 01:59N 69°02' E 015°10'510.3
2018-Jun-19 01:30N 68°60' E 015°23'611.2
2018-Jun-19 00:59N 68°54' E 015°24'3 6.7
2018-Jun-19 00:30N 68°54' E 015°33'510.0
2018-Jun-19 00:00N 68°58' E 015°39'610.7
2018-Jun-18 23:30N 68°59' E 015°54'511.0
2018-Jun-18 23:00N 68°60' E 016°09'510.2
2018-Jun-18 22:30N 68°59' E 016°24'2 4.0
2018-Jun-18 22:00N 68°59' E 016°29'0 0.0
2018-Jun-18 21:30N 68°59' E 016°29'4 8.8
2018-Jun-18 21:00N 68°59' E 016°41'510.9
2018-Jun-18 20:30N 68°60' E 016°57'510.8
2018-Jun-18 20:00N 69°00' E 017°12'5 9.5
2018-Jun-18 19:30N 69°04' E 017°21'5 9.7
2018-Jun-18 19:00N 69°07' E 017°32'611.1
2018-Jun-18 18:30N 69°09' E 017°46'510.8
2018-Jun-18 18:00N 69°11' E 017°60'5 8.9
2018-Jun-18 17:30N 69°15' E 017°58'5 9.5
2018-Jun-18 17:00N 69°20' E 018°03'5 9.4
2018-Jun-18 16:30N 69°24' E 018°06'5 9.2
2018-Jun-18 16:00N 69°29' E 018°10'510.6
2018-Jun-18 15:29N 69°31' E 018°25'5 9.9
2018-Jun-18 15:00N 69°33' E 018°37'4 8.5
2018-Jun-18 14:30N 69°34' E 018°49'510.9
2018-Jun-18 14:00N 69°39' E 018°58'2 3.5
2018-Jun-18 13:30N 69°41' E 018°59'0 0.0
2018-Jun-18 13:00N 69°41' E 018°59'0 0.0
2018-Jun-18 12:29N 69°41' E 018°59'0 0.1
2018-Jun-18 11:59N 69°40' E 018°59'510.4
2018-Jun-18 11:30N 69°45' E 019°06'510.4
2018-Jun-18 11:00N 69°47' E 019°19'611.1
2018-Jun-18 10:30N 69°49' E 019°34'511.0
2018-Jun-18 10:00N 69°52' E 019°48'511.0
2018-Jun-18 09:30N 69°56' E 020°01'610.6
2018-Jun-18 08:59N 69°59' E 020°14'510.7
2018-Jun-18 08:30N 70°00' E 020°28'611.1
2018-Jun-18 08:00N 70°02' E 020°43'510.5
2018-Jun-18 07:30N 70°05' E 020°56'510.4
2018-Jun-18 07:00N 70°10' E 021°03'5 9.7
2018-Jun-18 06:30N 70°14' E 021°10'510.1
2018-Jun-18 06:00N 70°17' E 021°22'510.1
2018-Jun-18 05:30N 70°21' E 021°32'510.3
2018-Jun-18 05:00N 70°24' E 021°44'5 9.9
2018-Jun-18 04:30N 70°25' E 021°58'510.5
2018-Jun-18 04:00N 70°27' E 022°13'611.4
2018-Jun-18 03:30N 70°28' E 022°30'510.3
2018-Jun-18 03:00N 70°30' E 022°45'5 9.4
2018-Jun-18 02:30N 70°31' E 022°58'510.0
2018-Jun-18 02:00N 70°33' E 023°12'1 2.9
2018-Jun-18 01:30N 70°32' E 023°14'0 0.0
2018-Jun-18 01:00N 70°32' E 023°14'0 0.0
2018-Jun-18 00:29N 70°32' E 023°14'1 2.8
2018-Jun-18 00:00N 70°33' E 023°15'3 6.3
2018-Jun-17 23:30N 70°34' E 023°23'0 0.0
2018-Jun-17 23:00N 70°34' E 023°24'0 0.0
2018-Jun-17 22:30N 70°34' E 023°24'0 0.0
2018-Jun-17 21:59N 70°34' E 023°24'0 0.0
2018-Jun-17 21:30N 70°34' E 023°24'0 0.0
2018-Jun-17 21:00N 70°34' E 023°24'0 0.0
2018-Jun-17 20:30N 70°34' E 023°24'0 0.0
2018-Jun-17 20:00N 70°34' E 023°23'2 4.1
2018-Jun-17 19:30N 70°36' E 023°22'4 8.3
2018-Jun-17 19:00N 70°38' E 023°34'5 9.9
2018-Jun-17 18:30N 70°32' E 023°34'0 0.1
2018-Jun-17 17:58N 70°32' E 023°33'0 0.0
2018-Jun-17 17:30N 70°32' E 023°33'0 0.0
2018-Jun-17 17:00N 70°32' E 023°33'1 2.9
2018-Jun-17 16:30N 70°31' E 023°37'510.0
2018-Jun-17 16:00N 70°27' E 023°39'5 9.4
2018-Jun-17 15:29N 70°23' E 023°29'0 0.0
2018-Jun-17 15:00N 70°23' E 023°29'0 0.0
2018-Jun-17 14:30N 70°23' E 023°29'2 4.3
2018-Jun-17 14:00N 70°21' E 023°26'1 2.2
2018-Jun-17 13:30N 70°21' E 023°23'0 0.0
2018-Jun-17 13:00N 70°21' E 023°23'0 0.0
2018-Jun-17 12:30N 70°21' E 023°23'1 1.9
2018-Jun-17 12:00N 70°20' E 023°22'510.1
2018-Jun-17 11:30N 70°16' E 023°12'510.2
2018-Jun-17 11:00N 70°14' E 022°59'510.2
2018-Jun-17 10:29N 70°15' E 022°43'510.3
2018-Jun-17 10:00N 70°16' E 022°29'510.8
2018-Jun-17 09:30N 70°19' E 022°15'510.7
2018-Jun-17 09:00N 70°21' E 022°00'510.1
2018-Jun-17 08:29N 70°23' E 021°46'4 8.7
2018-Jun-17 08:00N 70°21' E 021°35'510.6
2018-Jun-17 07:30N 70°18' E 021°24'510.1
2018-Jun-17 07:00N 70°15' E 021°12'5 9.3
2018-Jun-17 06:30N 70°10' E 021°11'510.4
2018-Jun-17 06:00N 70°05' E 021°15'3 5.0
2018-Jun-17 05:30N 70°03' E 021°17'0 0.0
2018-Jun-17 05:00N 70°03' E 021°17'0 0.0
2018-Jun-17 04:29N 70°03' E 021°17'0 0.0
2018-Jun-17 04:00N 70°03' E 021°17'0 0.0
2018-Jun-17 03:28N 70°03' E 021°17'4 7.8
2018-Jun-17 02:59N 69°60' E 021°09'611.9
2018-Jun-17 02:30N 69°56' E 020°56'4 8.4
2018-Jun-17 02:00N 69°53' E 020°46'0 0.0
2018-Jun-17 01:30N 69°53' E 020°46'3 6.4
2018-Jun-17 01:00N 69°55' E 020°38'1 1.2
2018-Jun-17 00:29N 69°55' E 020°36'0 0.0
2018-Jun-17 00:00N 69°55' E 020°36'0 0.0
2018-Jun-16 23:30N 69°55' E 020°36'0 0.6
2018-Jun-16 23:00N 69°55' E 020°37'3 5.5
2018-Jun-16 22:29N 69°58' E 020°37'0 0.0
2018-Jun-16 21:59N 69°58' E 020°37'0 0.0
2018-Jun-16 21:30N 69°58' E 020°37'0 0.8
2018-Jun-16 21:00N 69°58' E 020°36'510.1
2018-Jun-16 20:30N 69°59' E 020°22'510.2
2018-Jun-16 20:00N 69°57' E 020°08'611.3
2018-Jun-16 19:30N 69°54' E 019°54'510.6
2018-Jun-16 19:00N 69°51' E 019°42'611.2
2018-Jun-16 18:29N 69°48' E 019°27'511.2
2018-Jun-16 18:00N 69°46' E 019°12'510.1
2018-Jun-16 17:30N 69°42' E 019°04'0 0.3
2018-Jun-16 16:59N 69°42' E 019°04'0 0.0
2018-Jun-16 16:29N 69°42' E 019°04'1 2.2
2018-Jun-16 15:59N 69°41' E 019°02'510.6
2018-Jun-16 15:30N 69°37' E 018°54'5 9.4
2018-Jun-16 15:00N 69°33' E 018°45'510.2
2018-Jun-16 14:28N 69°32' E 018°30'511.0
2018-Jun-16 14:00N 69°30' E 018°17'5 9.8
2018-Jun-16 13:30N 69°26' E 018°07'510.7
2018-Jun-16 13:00N 69°21' E 018°05'510.5
2018-Jun-16 12:30N 69°16' E 017°58'510.0
2018-Jun-16 12:00N 69°11' E 018°01'611.1
2018-Jun-16 11:30N 69°08' E 017°47'611.4
2018-Jun-16 11:00N 69°06' E 017°32'611.1
2018-Jun-16 10:30N 69°03' E 017°20'510.5
2018-Jun-16 10:00N 68°60' E 017°09'510.2
2018-Jun-16 09:30N 68°59' E 016°54'510.2
2018-Jun-16 09:00N 68°59' E 016°40'4 7.2
2018-Jun-16 08:30N 68°59' E 016°30'5 9.1
2018-Jun-16 08:00N 68°60' E 016°17'510.3
2018-Jun-16 07:30N 68°59' E 016°03'510.5
2018-Jun-16 06:59N 68°59' E 015°48'5 9.8
2018-Jun-16 06:30N 68°57' E 015°36'510.1
2018-Jun-16 06:00N 68°52' E 015°30'4 7.2
2018-Jun-16 05:29N 68°55' E 015°24'4 8.5
2018-Jun-16 05:00N 68°59' E 015°23'4 8.7
2018-Jun-16 04:30N 69°02' E 015°13'5 9.5
2018-Jun-16 04:00N 69°01' E 014°60'510.7
2018-Jun-16 03:30N 68°55' E 014°60'1 3.0
2018-Jun-16 03:00N 68°55' E 015°04'0 0.0
2018-Jun-16 02:29N 68°55' E 015°04'0 0.0
2018-Jun-16 02:00N 68°55' E 015°04'0 0.0
2018-Jun-16 01:30N 68°55' E 015°04'0 0.0
2018-Jun-16 01:00N 68°55' E 015°04'0 0.0
2018-Jun-16 00:30N 68°55' E 015°04'0 0.0
2018-Jun-16 00:00N 68°55' E 015°04'0 0.0
2018-Jun-15 23:30N 68°55' E 015°04'0 0.0
2018-Jun-15 23:00N 68°55' E 015°04'0 0.0
2018-Jun-15 22:30N 68°55' E 015°04'0 0.0
2018-Jun-15 22:00N 68°55' E 015°04'0 0.0
2018-Jun-15 21:30N 68°55' E 015°04'0 0.0
2018-Jun-15 21:00N 68°55' E 015°04'0 0.0
2018-Jun-15 20:30N 68°55' E 015°04'0 0.0
2018-Jun-15 20:00N 68°55' E 015°04'0 0.0
2018-Jun-15 19:30N 68°55' E 015°04'0 0.0
2018-Jun-15 18:58N 68°55' E 015°04'0 0.0
2018-Jun-15 18:30N 68°55' E 015°04'0 0.0
2018-Jun-15 18:00N 68°55' E 015°04'0 0.0
2018-Jun-15 17:29N 68°55' E 015°04'0 0.0
2018-Jun-15 17:00N 68°55' E 015°04'0 0.0
2018-Jun-15 16:29N 68°55' E 015°04'0 0.0
2018-Jun-15 16:00N 68°55' E 015°04'0 0.0
2018-Jun-15 15:30N 68°55' E 015°04'0 0.0
2018-Jun-15 15:00N 68°55' E 015°04'0 0.0
2018-Jun-15 14:28N 68°55' E 015°04'0 0.0
2018-Jun-15 14:00N 68°55' E 015°04'0 0.0
2018-Jun-15 13:30N 68°55' E 015°04'5 9.1
2018-Jun-15 13:00N 68°52' E 014°54'510.2
2018-Jun-15 12:30N 68°51' E 014°40'611.2
2018-Jun-15 12:00N 68°48' E 014°27'611.1
2018-Jun-15 11:30N 68°43' E 014°23'510.9
2018-Jun-15 11:00N 68°38' E 014°22'611.4
2018-Jun-15 10:30N 68°32' E 014°20'611.4
2018-Jun-15 10:00N 68°26' E 014°18'611.2
2018-Jun-15 09:30N 68°21' E 014°17'510.3
2018-Jun-15 09:00N 68°15' E 014°14'510.3
2018-Jun-15 08:30N 68°11' E 014°09'610.7
2018-Jun-15 07:59N 68°05' E 014°08'510.8
2018-Jun-15 07:30N 67°60' E 014°09'510.8
2018-Jun-15 06:59N 67°54' E 014°10'510.9
2018-Jun-15 06:30N 67°49' E 014°11'611.4
2018-Jun-15 06:00N 67°44' E 014°13'611.2
2018-Jun-15 05:30N 67°38' E 014°16'611.1
2018-Jun-15 05:00N 67°33' E 014°20'510.7
2018-Jun-15 04:30N 67°28' E 014°24'510.3
2018-Jun-15 04:00N 67°22' E 014°25'611.2
2018-Jun-15 03:30N 67°18' E 014°17'3 6.7
2018-Jun-15 03:00N 67°15' E 014°19'510.7
2018-Jun-15 02:30N 67°15' E 014°33'3 6.3
2018-Jun-15 02:00N 67°13' E 014°40'2 4.4
2018-Jun-15 01:30N 67°14' E 014°45'3 5.1
2018-Jun-15 01:00N 67°15' E 014°52'3 5.3
2018-Jun-15 00:30N 67°16' E 014°58'3 5.5
2018-Jun-15 00:00N 67°15' E 015°05'3 5.7
2018-Jun-14 23:30N 67°14' E 015°12'3 5.4
2018-Jun-14 23:00N 67°14' E 015°19'1 1.5
2018-Jun-14 22:29N 67°14' E 015°21'0 0.0
2018-Jun-14 22:00N 67°14' E 015°21'3 5.2
2018-Jun-14 21:30N 67°14' E 015°15'4 8.7
2018-Jun-14 21:00N 67°15' E 015°04'4 8.3
2018-Jun-14 20:30N 67°15' E 014°53'5 9.5
2018-Jun-14 20:01N 67°13' E 014°42'3 6.8
2018-Jun-14 19:30N 67°16' E 014°35'1 1.6
2018-Jun-14 19:00N 67°16' E 014°33'2 3.5
2018-Jun-14 18:30N 67°15' E 014°29'3 5.1
2018-Jun-14 18:00N 67°14' E 014°23'2 4.7
2018-Jun-14 17:30N 67°13' E 014°18'2 4.4
2018-Jun-14 17:00N 67°12' E 014°13'2 5.0
2018-Jun-14 16:30N 67°11' E 014°07'5 8.7
2018-Jun-14 15:59N 67°07' E 014°00'510.1
2018-Jun-14 15:30N 67°03' E 013°52'5 9.5
2018-Jun-14 15:00N 67°01' E 013°42'5 9.3
2018-Jun-14 14:30N 66°58' E 013°32'4 8.2
2018-Jun-14 14:00N 66°54' E 013°31'4 8.9
2018-Jun-14 13:30N 66°50' E 013°33'2 3.9
2018-Jun-14 13:00N 66°49' E 013°28'1 2.3
2018-Jun-14 12:30N 66°49' E 013°31'3 6.8
2018-Jun-14 12:00N 66°52' E 013°36'0 0.0
2018-Jun-14 11:30N 66°52' E 013°36'0 0.1
2018-Jun-14 11:00N 66°52' E 013°36'3 6.6
2018-Jun-14 10:29N 66°55' E 013°30'4 8.0
2018-Jun-14 10:00N 66°58' E 013°34'510.5
2018-Jun-14 09:30N 67°01' E 013°45'510.3
2018-Jun-14 09:00N 67°05' E 013°55'5 9.8
2018-Jun-14 08:30N 67°09' E 014°02'510.4
2018-Jun-14 08:00N 67°13' E 014°08'510.6
2018-Jun-14 07:30N 67°18' E 014°15'510.4
2018-Jun-14 07:00N 67°23' E 014°22'1 1.4
2018-Jun-14 06:30N 67°23' E 014°23'0 0.0
2018-Jun-14 06:00N 67°23' E 014°23'0 0.2
2018-Jun-14 05:31N 67°23' E 014°23'2 3.9
2018-Jun-14 05:00N 67°25' E 014°25'0 0.0
2018-Jun-14 04:30N 67°25' E 014°25'0 0.0
2018-Jun-14 04:00N 67°25' E 014°25'4 7.3
2018-Jun-14 03:30N 67°26' E 014°34'3 6.7
2018-Jun-14 03:00N 67°26' E 014°43'0 0.0
2018-Jun-14 02:30N 67°26' E 014°43'0 0.0
2018-Jun-14 02:00N 67°26' E 014°43'0 0.0
2018-Jun-14 01:30N 67°26' E 014°43'1 2.9
2018-Jun-14 01:00N 67°27' E 014°40'5 9.6
2018-Jun-14 00:30N 67°31' E 014°32'510.2
2018-Jun-14 00:00N 67°36' E 014°31'510.4
2018-Jun-13 23:30N 67°41' E 014°31'510.5
2018-Jun-13 23:00N 67°47' E 014°32'4 8.7
2018-Jun-13 22:30N 67°50' E 014°38'5 9.4
2018-Jun-13 21:59N 67°54' E 014°44'5 9.8
2018-Jun-13 21:30N 67°58' E 014°52'510.0
2018-Jun-13 21:00N 68°02' E 015°02'510.1
2018-Jun-13 20:30N 68°05' E 015°12'510.4
2018-Jun-13 19:59N 68°08' E 015°23'510.3
2018-Jun-13 19:30N 68°11' E 015°34'510.5
2018-Jun-13 18:59N 68°14' E 015°46'510.5
2018-Jun-13 18:29N 68°16' E 015°59'5 9.7
2018-Jun-13 18:00N 68°13' E 016°08'510.3
2018-Jun-13 17:30N 68°08' E 016°10'510.1
2018-Jun-13 17:00N 68°03' E 016°09'510.3
2018-Jun-13 16:30N 67°58' E 016°14'5 9.3
2018-Jun-13 16:00N 67°54' E 016°14'0 0.0
2018-Jun-13 15:30N 67°54' E 016°14'0 0.0
2018-Jun-13 15:00N 67°54' E 016°14'0 0.0
2018-Jun-13 14:28N 67°54' E 016°14'0 0.2
2018-Jun-13 13:59N 67°54' E 016°14'4 8.8
2018-Jun-13 13:30N 67°58' E 016°14'510.5
2018-Jun-13 12:59N 68°03' E 016°09'510.2
2018-Jun-13 12:30N 68°08' E 016°09'510.3
2018-Jun-13 12:00N 68°13' E 016°09'510.2
2018-Jun-13 11:29N 68°18' E 016°01'510.5
2018-Jun-13 11:00N 68°23' E 016°03'510.2
2018-Jun-13 10:30N 68°28' E 016°06'4 7.8
2018-Jun-13 10:00N 68°31' E 016°07'0 0.2
2018-Jun-13 09:30N 68°31' E 016°07'0 0.0
2018-Jun-13 09:00N 68°31' E 016°07'0 0.0
2018-Jun-13 08:30N 68°31' E 016°07'4 7.2
2018-Jun-13 07:59N 68°33' E 016°16'510.3
2018-Jun-13 07:30N 68°33' E 016°30'510.7
2018-Jun-13 07:00N 68°38' E 016°36'510.5
2018-Jun-13 06:30N 68°43' E 016°41'510.3
2018-Jun-13 06:00N 68°48' E 016°41'5 9.2
2018-Jun-13 05:29N 68°52' E 016°33'510.0
2018-Jun-13 05:00N 68°54' E 016°21'1 2.6
2018-Jun-13 04:30N 68°55' E 016°17'0 0.0
2018-Jun-13 04:00N 68°55' E 016°17'0 0.0
2018-Jun-13 03:30N 68°55' E 016°17'0 1.0
2018-Jun-13 03:00N 68°55' E 016°17'5 9.2
2018-Jun-13 02:30N 68°59' E 016°10'5 9.3
2018-Jun-13 02:00N 68°59' E 016°23'2 4.6
2018-Jun-13 01:30N 68°59' E 016°29'0 0.0
2018-Jun-13 01:00N 68°59' E 016°29'3 6.2
2018-Jun-13 00:28N 68°60' E 016°21'510.1
2018-Jun-13 00:00N 68°60' E 016°07'510.4
2018-Jun-12 23:30N 68°59' E 015°53'5 9.7
2018-Jun-12 23:00N 68°58' E 015°40'5 9.2
2018-Jun-12 22:30N 68°54' E 015°34'3 6.6
2018-Jun-12 22:00N 68°53' E 015°25'510.5
2018-Jun-12 21:30N 68°59' E 015°22'5 9.2
2018-Jun-12 20:59N 69°02' E 015°12'4 9.1
2018-Jun-12 20:30N 69°01' E 015°00'5 9.5
2018-Jun-12 20:00N 68°56' E 014°59'2 4.0
2018-Jun-12 19:30N 68°55' E 015°04'0 0.0
2018-Jun-12 19:00N 68°55' E 015°04'0 0.0
2018-Jun-12 18:30N 68°55' E 015°04'0 0.0
2018-Jun-12 18:00N 68°55' E 015°04'0 0.0
2018-Jun-12 17:29N 68°55' E 015°04'0 0.0
2018-Jun-12 17:00N 68°55' E 015°04'0 0.0
2018-Jun-12 16:30N 68°55' E 015°04'0 0.0
2018-Jun-12 16:00N 68°55' E 015°04'0 0.0
2018-Jun-12 15:29N 68°55' E 015°04'0 0.0
2018-Jun-12 15:00N 68°55' E 015°04'0 0.0
2018-Jun-12 14:30N 68°55' E 015°04'0 0.0
2018-Jun-12 14:00N 68°55' E 015°04'0 0.0
2018-Jun-12 13:30N 68°55' E 015°04'0 0.1
2018-Jun-12 13:00N 68°55' E 015°04'0 0.2
2018-Jun-12 12:30N 68°55' E 015°04'0 0.2
2018-Jun-12 12:00N 68°55' E 015°04'0 0.4
2018-Jun-12 11:30N 68°55' E 015°03'1 1.3
2018-Jun-12 11:00N 68°54' E 015°03'0 0.3
2018-Jun-12 10:30N 68°54' E 015°02'0 0.0
2018-Jun-12 10:00N 68°54' E 015°02'0 0.0
2018-Jun-12 09:28N 68°54' E 015°02'0 0.0
2018-Jun-12 09:00N 68°54' E 015°02'0 0.0
2018-Jun-12 08:30N 68°54' E 015°02'0 0.0
2018-Jun-12 07:59N 68°54' E 015°02'0 0.0
2018-Jun-12 07:30N 68°54' E 015°02'0 0.0
2018-Jun-12 07:00N 68°54' E 015°02'0 0.0
2018-Jun-12 06:30N 68°54' E 015°02'1 1.5
2018-Jun-12 06:00N 68°55' E 015°04'0 0.0
2018-Jun-12 05:30N 68°55' E 015°04'0 0.0
2018-Jun-12 04:59N 68°55' E 015°04'0 0.0
2018-Jun-12 04:30N 68°55' E 015°04'0 0.0
2018-Jun-12 04:00N 68°55' E 015°04'0 0.0
2018-Jun-12 03:30N 68°55' E 015°04'0 0.0
2018-Jun-12 03:00N 68°55' E 015°04'0 0.0
2018-Jun-12 02:30N 68°55' E 015°04'0 0.0
2018-Jun-12 01:59N 68°55' E 015°04'0 0.0
2018-Jun-12 01:30N 68°55' E 015°04'0 0.0
2018-Jun-12 01:00N 68°55' E 015°04'0 0.0
2018-Jun-12 00:30N 68°55' E 015°04'0 0.0
2018-Jun-12 00:00N 68°55' E 015°04'0 0.0
2018-Jun-11 23:30N 68°55' E 015°04'0 0.0
2018-Jun-11 22:59N 68°55' E 015°04'0 0.0
2018-Jun-11 22:29N 68°55' E 015°04'0 0.0
2018-Jun-11 22:00N 68°55' E 015°04'0 0.0
2018-Jun-11 21:30N 68°55' E 015°04'1 1.4
2018-Jun-11 21:00N 68°55' E 015°02'510.0
2018-Jun-11 20:29N 69°00' E 014°59'5 9.9
2018-Jun-11 20:00N 69°03' E 015°10'510.7
2018-Jun-11 19:30N 69°07' E 015°20'510.6
2018-Jun-11 18:59N 69°11' E 015°29'510.4
2018-Jun-11 18:30N 69°15' E 015°38'510.1
2018-Jun-11 18:00N 69°19' E 015°47'5 9.9
2018-Jun-11 17:30N 69°22' E 015°58'5 9.5
2018-Jun-11 17:00N 69°25' E 016°09'5 9.6
2018-Jun-11 16:30N 69°27' E 016°21'5 9.8
2018-Jun-11 16:00N 69°29' E 016°33'510.0
2018-Jun-11 15:28N 69°32' E 016°47'4 9.4
2018-Jun-11 15:00N 69°34' E 016°58'5 9.3
2018-Jun-11 14:30N 69°36' E 017°10'4 9.1
2018-Jun-11 14:00N 69°37' E 017°22'4 8.6
2018-Jun-11 13:30N 69°39' E 017°34'4 8.6
2018-Jun-11 13:00N 69°38' E 017°46'510.2
2018-Jun-11 12:30N 69°35' E 017°57'510.7
2018-Jun-11 12:00N 69°31' E 018°09'510.8
2018-Jun-11 11:30N 69°32' E 018°24'510.2
2018-Jun-11 11:00N 69°33' E 018°38'510.5
2018-Jun-11 10:30N 69°35' E 018°51'510.4
2018-Jun-11 10:00N 69°40' E 018°60'3 5.4
2018-Jun-11 09:30N 69°42' E 019°04'0 0.0
2018-Jun-11 09:00N 69°42' E 019°04'0 0.0
2018-Jun-11 08:29N 69°42' E 019°04'0 0.0
2018-Jun-11 08:00N 69°42' E 019°04'0 0.0
2018-Jun-11 07:30N 69°42' E 019°04'1 2.3
2018-Jun-11 07:00N 69°43' E 019°04'5 9.6
2018-Jun-11 06:30N 69°47' E 019°14'5 9.9
2018-Jun-11 06:00N 69°49' E 019°27'5 9.8
2018-Jun-11 05:29N 69°51' E 019°40'5 9.8
2018-Jun-11 05:00N 69°53' E 019°52'5 9.9
2018-Jun-11 04:30N 69°56' E 020°04'  
Track history (hours):
 
Tides and Currents Weather Stations Pressure Air Temp Water Temp Dewpoint Dewpoint Depression Visibility Wind Speed Wind Dir Waves Ship Positions

Vaagsund

Last reported at 2018-Jun-21 04:00 UTC. Time now 2018-Jun-21 04:22 UTC.
Position N 67°08' E 014°01'.

Length 74 m; draft 3.7 m.

Type: Cargo ship. MMSI: 259991000.

Date/timePositionNaut miles runAvg speedWind from/ knotsBaromVisibWave heightAir tempDewpointWater temp
2018-Jun-21 04:00N 67°08' E 014°01'5 9.1
2018-Jun-21 03:30N 67°12' E 014°07'5 9.1
2018-Jun-21 03:00N 67°15' E 014°15'4 7.9
2018-Jun-21 02:30N 67°17' E 014°23'0 0.0
2018-Jun-21 02:00N 67°17' E 014°23'0 0.0
2018-Jun-21 01:30N 67°17' E 014°23'0 0.0
2018-Jun-21 01:00N 67°17' E 014°23'0 0.0
2018-Jun-21 00:30N 67°17' E 014°23'2 3.2
2018-Jun-21 00:00N 67°19' E 014°22'4 8.4
2018-Jun-20 23:30N 67°23' E 014°23'0 0.0
2018-Jun-20 23:00N 67°23' E 014°23'0 0.0
2018-Jun-20 22:30N 67°23' E 014°23'2 3.1
2018-Jun-20 22:00N 67°24' E 014°25'1 1.0
2018-Jun-20 21:28N 67°25' E 014°25'2 3.4
2018-Jun-20 21:00N 67°26' E 014°27'510.0
2018-Jun-20 20:30N 67°31' E 014°29'5 9.7
2018-Jun-20 20:00N 67°36' E 014°31'5 9.4
2018-Jun-20 19:30N 67°41' E 014°31'5 9.6
2018-Jun-20 19:00N 67°46' E 014°32'5 9.8
2018-Jun-20 18:30N 67°51' E 014°31'5 9.6
2018-Jun-20 18:00N 67°54' E 014°39'5 9.4
2018-Jun-20 17:30N 67°58' E 014°48'5 9.5
2018-Jun-20 17:00N 68°01' E 014°58'5 9.2
2018-Jun-20 16:29N 68°04' E 015°07'5 9.2
2018-Jun-20 16:00N 68°07' E 015°16'5 9.9
2018-Jun-20 15:28N 68°10' E 015°27'510.1
2018-Jun-20 15:00N 68°13' E 015°38'5 9.9
2018-Jun-20 14:30N 68°15' E 015°50'5 9.7
2018-Jun-20 14:00N 68°16' E 016°02'510.8
2018-Jun-20 13:30N 68°12' E 016°10'511.1
2018-Jun-20 13:00N 68°06' E 016°09'4 8.9
2018-Jun-20 12:30N 68°02' E 016°15'0 0.6
2018-Jun-20 11:59N 68°02' E 016°15'0 0.0
2018-Jun-20 11:30N 68°02' E 016°15'0 0.3
2018-Jun-20 11:00N 68°02' E 016°15'4 8.4
2018-Jun-20 10:30N 68°06' E 016°09'510.6
2018-Jun-20 09:59N 68°11' E 016°10'510.2
2018-Jun-20 09:30N 68°15' E 016°05'5 9.9
2018-Jun-20 09:00N 68°20' E 016°01'510.3
2018-Jun-20 08:30N 68°25' E 016°03'510.5
2018-Jun-20 08:00N 68°30' E 016°08'5 9.6
2018-Jun-20 07:30N 68°33' E 016°18'5 9.2
2018-Jun-20 07:00N 68°34' E 016°31'5 8.9
2018-Jun-20 06:30N 68°38' E 016°35'4 8.6
2018-Jun-20 06:00N 68°41' E 016°44'510.4
2018-Jun-20 05:29N 68°43' E 016°57'510.5
2018-Jun-20 05:00N 68°45' E 017°10'3 6.1
2018-Jun-20 04:30N 68°47' E 017°17'0 0.0
2018-Jun-20 04:00N 68°47' E 017°17'2 4.5
2018-Jun-20 03:30N 68°48' E 017°12'4 8.8
2018-Jun-20 03:00N 68°51' E 017°05'4 8.6
2018-Jun-20 02:30N 68°55' E 016°57'4 8.8
2018-Jun-20 02:00N 68°58' E 016°49'4 8.3
2018-Jun-20 01:30N 68°59' E 016°38'3 6.0
2018-Jun-20 01:00N 68°59' E 016°29'0 0.0
2018-Jun-20 00:30N 68°59' E 016°29'1 2.3
2018-Jun-20 00:00N 68°59' E 016°26'4 8.0
2018-Jun-19 23:30N 69°00' E 016°16'4 8.1
2018-Jun-19 23:00N 68°59' E 016°05'4 8.3
2018-Jun-19 22:30N 68°59' E 015°53'4 8.5
2018-Jun-19 22:00N 68°58' E 015°41'4 7.3
2018-Jun-19 21:30N 68°55' E 015°35'4 8.5
2018-Jun-19 21:00N 68°52' E 015°29'3 6.7
2018-Jun-19 20:30N 68°55' E 015°24'4 8.2
2018-Jun-19 19:59N 68°59' E 015°23'3 7.2
2018-Jun-19 19:30N 69°01' E 015°15'4 8.5
2018-Jun-19 19:00N 69°02' E 015°03'4 8.8
2018-Jun-19 18:30N 68°58' E 014°59'5 9.7
2018-Jun-19 18:00N 68°53' E 015°00'5 9.8
2018-Jun-19 17:30N 68°51' E 014°48'1 2.5
2018-Jun-19 17:00N 68°50' E 014°46'0 0.0
2018-Jun-19 16:28N 68°50' E 014°46'0 0.0
2018-Jun-19 16:00N 68°50' E 014°46'2 3.9
2018-Jun-19 15:30N 68°50' E 014°52'1 2.8
2018-Jun-19 15:00N 68°48' E 014°52'0 0.0
2018-Jun-19 14:30N 68°48' E 014°52'0 0.0
2018-Jun-19 14:00N 68°48' E 014°52'4 7.3
2018-Jun-19 13:28N 68°52' E 014°57'4 8.5
2018-Jun-19 13:00N 68°55' E 015°04'0 0.3
2018-Jun-19 12:30N 68°55' E 015°04'0 0.0
2018-Jun-19 11:59N 68°55' E 015°04'0 0.0
2018-Jun-19 11:30N 68°55' E 015°04'0 0.0
2018-Jun-19 11:00N 68°55' E 015°04'0 0.0
2018-Jun-19 10:30N 68°55' E 015°04'0 0.0
2018-Jun-19 10:00N 68°55' E 015°04'0 0.0
2018-Jun-19 09:30N 68°55' E 015°04'0 0.0
2018-Jun-19 09:00N 68°55' E 015°04'0 0.0
2018-Jun-19 08:29N 68°55' E 015°04'0 0.0
2018-Jun-19 08:00N 68°55' E 015°04'0 0.0
2018-Jun-19 07:30N 68°55' E 015°04'0 0.0
2018-Jun-19 07:00N 68°55' E 015°04'0 0.0
2018-Jun-19 06:30N 68°55' E 015°04'0 0.0
2018-Jun-19 06:00N 68°55' E 015°04'0 0.0
2018-Jun-19 05:30N 68°55' E 015°04'0 0.0
2018-Jun-19 05:00N 68°55' E 015°04'0 0.0
2018-Jun-19 04:30N 68°55' E 015°04'0 0.0
2018-Jun-19 04:00N 68°55' E 015°04'0 0.0
2018-Jun-19 03:30N 68°55' E 015°04'1 1.8
2018-Jun-19 03:00N 68°55' E 015°01'5 9.7
2018-Jun-19 02:30N 68°60' E 014°59'5 8.8
2018-Jun-19 01:59N 69°02' E 015°10'510.3
2018-Jun-19 01:30N 68°60' E 015°23'611.2
2018-Jun-19 00:59N 68°54' E 015°24'3 6.7
2018-Jun-19 00:30N 68°54' E 015°33'510.0
2018-Jun-19 00:00N 68°58' E 015°39'610.7
2018-Jun-18 23:30N 68°59' E 015°54'511.0
2018-Jun-18 23:00N 68°60' E 016°09'510.2
2018-Jun-18 22:30N 68°59' E 016°24'2 4.0
2018-Jun-18 22:00N 68°59' E 016°29'0 0.0
2018-Jun-18 21:30N 68°59' E 016°29'4 8.8
2018-Jun-18 21:00N 68°59' E 016°41'510.9
2018-Jun-18 20:30N 68°60' E 016°57'510.8
2018-Jun-18 20:00N 69°00' E 017°12'5 9.5
2018-Jun-18 19:30N 69°04' E 017°21'5 9.7
2018-Jun-18 19:00N 69°07' E 017°32'611.1
2018-Jun-18 18:30N 69°09' E 017°46'510.8
2018-Jun-18 18:00N 69°11' E 017°60'5 8.9
2018-Jun-18 17:30N 69°15' E 017°58'5 9.5
2018-Jun-18 17:00N 69°20' E 018°03'5 9.4
2018-Jun-18 16:30N 69°24' E 018°06'5 9.2
2018-Jun-18 16:00N 69°29' E 018°10'510.6
2018-Jun-18 15:29N 69°31' E 018°25'5 9.9
2018-Jun-18 15:00N 69°33' E 018°37'4 8.5
2018-Jun-18 14:30N 69°34' E 018°49'510.9
2018-Jun-18 14:00N 69°39' E 018°58'2 3.5
2018-Jun-18 13:30N 69°41' E 018°59'0 0.0
2018-Jun-18 13:00N 69°41' E 018°59'0 0.0
2018-Jun-18 12:29N 69°41' E 018°59'0 0.1
2018-Jun-18 11:59N 69°40' E 018°59'510.4
2018-Jun-18 11:30N 69°45' E 019°06'510.4
2018-Jun-18 11:00N 69°47' E 019°19'611.1
2018-Jun-18 10:30N 69°49' E 019°34'511.0
2018-Jun-18 10:00N 69°52' E 019°48'511.0
2018-Jun-18 09:30N 69°56' E 020°01'610.6
2018-Jun-18 08:59N 69°59' E 020°14'510.7
2018-Jun-18 08:30N 70°00' E 020°28'611.1
2018-Jun-18 08:00N 70°02' E 020°43'510.5
2018-Jun-18 07:30N 70°05' E 020°56'510.4
2018-Jun-18 07:00N 70°10' E 021°03'5 9.7
2018-Jun-18 06:30N 70°14' E 021°10'510.1
2018-Jun-18 06:00N 70°17' E 021°22'510.1
2018-Jun-18 05:30N 70°21' E 021°32'510.3
2018-Jun-18 05:00N 70°24' E 021°44'5 9.9
2018-Jun-18 04:30N 70°25' E 021°58'510.5
2018-Jun-18 04:00N 70°27' E 022°13'611.4
2018-Jun-18 03:30N 70°28' E 022°30'510.3
2018-Jun-18 03:00N 70°30' E 022°45'5 9.4
2018-Jun-18 02:30N 70°31' E 022°58'510.0
2018-Jun-18 02:00N 70°33' E 023°12'1 2.9
2018-Jun-18 01:30N 70°32' E 023°14'0 0.0
2018-Jun-18 01:00N 70°32' E 023°14'0 0.0
2018-Jun-18 00:29N 70°32' E 023°14'1 2.8
2018-Jun-18 00:00N 70°33' E 023°15'3 6.3
2018-Jun-17 23:30N 70°34' E 023°23'0 0.0
2018-Jun-17 23:00N 70°34' E 023°24'0 0.0
2018-Jun-17 22:30N 70°34' E 023°24'0 0.0
2018-Jun-17 21:59N 70°34' E 023°24'0 0.0
2018-Jun-17 21:30N 70°34' E 023°24'0 0.0
2018-Jun-17 21:00N 70°34' E 023°24'0 0.0
2018-Jun-17 20:30N 70°34' E 023°24'0 0.0
2018-Jun-17 20:00N 70°34' E 023°23'2 4.1
2018-Jun-17 19:30N 70°36' E 023°22'4 8.3
2018-Jun-17 19:00N 70°38' E 023°34'5 9.9
2018-Jun-17 18:30N 70°32' E 023°34'0 0.1
2018-Jun-17 17:58N 70°32' E 023°33'0 0.0
2018-Jun-17 17:30N 70°32' E 023°33'0 0.0
2018-Jun-17 17:00N 70°32' E 023°33'1 2.9
2018-Jun-17 16:30N 70°31' E 023°37'510.0
2018-Jun-17 16:00N 70°27' E 023°39'5 9.4
2018-Jun-17 15:29N 70°23' E 023°29'0 0.0
2018-Jun-17 15:00N 70°23' E 023°29'0 0.0
2018-Jun-17 14:30N 70°23' E 023°29'2 4.3
2018-Jun-17 14:00N 70°21' E 023°26'1 2.2
2018-Jun-17 13:30N 70°21' E 023°23'0 0.0
2018-Jun-17 13:00N 70°21' E 023°23'0 0.0
2018-Jun-17 12:30N 70°21' E 023°23'1 1.9
2018-Jun-17 12:00N 70°20' E 023°22'510.1
2018-Jun-17 11:30N 70°16' E 023°12'510.2
2018-Jun-17 11:00N 70°14' E 022°59'510.2
2018-Jun-17 10:29N 70°15' E 022°43'510.3
2018-Jun-17 10:00N 70°16' E 022°29'510.8
2018-Jun-17 09:30N 70°19' E 022°15'510.7
2018-Jun-17 09:00N 70°21' E 022°00'510.1
2018-Jun-17 08:29N 70°23' E 021°46'4 8.7
2018-Jun-17 08:00N 70°21' E 021°35'510.6
2018-Jun-17 07:30N 70°18' E 021°24'510.1
2018-Jun-17 07:00N 70°15' E 021°12'5 9.3
2018-Jun-17 06:30N 70°10' E 021°11'510.4
2018-Jun-17 06:00N 70°05' E 021°15'3 5.0
2018-Jun-17 05:30N 70°03' E 021°17'0 0.0
2018-Jun-17 05:00N 70°03' E 021°17'0 0.0
2018-Jun-17 04:29N 70°03' E 021°17'0 0.0
2018-Jun-17 04:00N 70°03' E 021°17'0 0.0
2018-Jun-17 03:28N 70°03' E 021°17'4 7.8
2018-Jun-17 02:59N 69°60' E 021°09'611.9
2018-Jun-17 02:30N 69°56' E 020°56'4 8.4
2018-Jun-17 02:00N 69°53' E 020°46'0 0.0
2018-Jun-17 01:30N 69°53' E 020°46'3 6.4
2018-Jun-17 01:00N 69°55' E 020°38'1 1.2
2018-Jun-17 00:29N 69°55' E 020°36'0 0.0
2018-Jun-17 00:00N 69°55' E 020°36'0 0.0
2018-Jun-16 23:30N 69°55' E 020°36'0 0.6
2018-Jun-16 23:00N 69°55' E 020°37'3 5.5
2018-Jun-16 22:29N 69°58' E 020°37'0 0.0
2018-Jun-16 21:59N 69°58' E 020°37'0 0.0
2018-Jun-16 21:30N 69°58' E 020°37'0 0.8
2018-Jun-16 21:00N 69°58' E 020°36'510.1
2018-Jun-16 20:30N 69°59' E 020°22'510.2
2018-Jun-16 20:00N 69°57' E 020°08'611.3
2018-Jun-16 19:30N 69°54' E 019°54'510.6
2018-Jun-16 19:00N 69°51' E 019°42'611.2
2018-Jun-16 18:29N 69°48' E 019°27'511.2
2018-Jun-16 18:00N 69°46' E 019°12'510.1
2018-Jun-16 17:30N 69°42' E 019°04'0 0.3
2018-Jun-16 16:59N 69°42' E 019°04'0 0.0
2018-Jun-16 16:29N 69°42' E 019°04'1 2.2
2018-Jun-16 15:59N 69°41' E 019°02'510.6
2018-Jun-16 15:30N 69°37' E 018°54'5 9.4
2018-Jun-16 15:00N 69°33' E 018°45'510.2
2018-Jun-16 14:28N 69°32' E 018°30'511.0
2018-Jun-16 14:00N 69°30' E 018°17'5 9.8
2018-Jun-16 13:30N 69°26' E 018°07'510.7
2018-Jun-16 13:00N 69°21' E 018°05'510.5
2018-Jun-16 12:30N 69°16' E 017°58'510.0
2018-Jun-16 12:00N 69°11' E 018°01'611.1
2018-Jun-16 11:30N 69°08' E 017°47'611.4
2018-Jun-16 11:00N 69°06' E 017°32'611.1
2018-Jun-16 10:30N 69°03' E 017°20'510.5
2018-Jun-16 10:00N 68°60' E 017°09'510.2
2018-Jun-16 09:30N 68°59' E 016°54'510.2
2018-Jun-16 09:00N 68°59' E 016°40'4 7.2
2018-Jun-16 08:30N 68°59' E 016°30'5 9.1
2018-Jun-16 08:00N 68°60' E 016°17'510.3
2018-Jun-16 07:30N 68°59' E 016°03'510.5
2018-Jun-16 06:59N 68°59' E 015°48'5 9.8
2018-Jun-16 06:30N 68°57' E 015°36'510.1
2018-Jun-16 06:00N 68°52' E 015°30'4 7.2
2018-Jun-16 05:29N 68°55' E 015°24'4 8.5
2018-Jun-16 05:00N 68°59' E 015°23'4 8.7
2018-Jun-16 04:30N 69°02' E 015°13'5 9.5
2018-Jun-16 04:00N 69°01' E 014°60'510.7
2018-Jun-16 03:30N 68°55' E 014°60'1 3.0
2018-Jun-16 03:00N 68°55' E 015°04'0 0.0
2018-Jun-16 02:29N 68°55' E 015°04'0 0.0
2018-Jun-16 02:00N 68°55' E 015°04'0 0.0
2018-Jun-16 01:30N 68°55' E 015°04'0 0.0
2018-Jun-16 01:00N 68°55' E 015°04'0 0.0
2018-Jun-16 00:30N 68°55' E 015°04'0 0.0
2018-Jun-16 00:00N 68°55' E 015°04'0 0.0
2018-Jun-15 23:30N 68°55' E 015°04'0 0.0
2018-Jun-15 23:00N 68°55' E 015°04'0 0.0
2018-Jun-15 22:30N 68°55' E 015°04'0 0.0
2018-Jun-15 22:00N 68°55' E 015°04'0 0.0
2018-Jun-15 21:30N 68°55' E 015°04'0 0.0
2018-Jun-15 21:00N 68°55' E 015°04'0 0.0
2018-Jun-15 20:30N 68°55' E 015°04'0 0.0
2018-Jun-15 20:00N 68°55' E 015°04'0 0.0
2018-Jun-15 19:30N 68°55' E 015°04'0 0.0
2018-Jun-15 18:58N 68°55' E 015°04'0 0.0
2018-Jun-15 18:30N 68°55' E 015°04'0 0.0
2018-Jun-15 18:00N 68°55' E 015°04'0 0.0
2018-Jun-15 17:29N 68°55' E 015°04'0 0.0
2018-Jun-15 17:00N 68°55' E 015°04'0 0.0
2018-Jun-15 16:29N 68°55' E 015°04'0 0.0
2018-Jun-15 16:00N 68°55' E 015°04'0 0.0
2018-Jun-15 15:30N 68°55' E 015°04'0 0.0
2018-Jun-15 15:00N 68°55' E 015°04'0 0.0
2018-Jun-15 14:28N 68°55' E 015°04'0 0.0
2018-Jun-15 14:00N 68°55' E 015°04'0 0.0
2018-Jun-15 13:30N 68°55' E 015°04'5 9.1
2018-Jun-15 13:00N 68°52' E 014°54'510.2
2018-Jun-15 12:30N 68°51' E 014°40'611.2
2018-Jun-15 12:00N 68°48' E 014°27'611.1
2018-Jun-15 11:30N 68°43' E 014°23'510.9
2018-Jun-15 11:00N 68°38' E 014°22'611.4
2018-Jun-15 10:30N 68°32' E 014°20'611.4
2018-Jun-15 10:00N 68°26' E 014°18'611.2
2018-Jun-15 09:30N 68°21' E 014°17'510.3
2018-Jun-15 09:00N 68°15' E 014°14'510.3
2018-Jun-15 08:30N 68°11' E 014°09'610.7
2018-Jun-15 07:59N 68°05' E 014°08'510.8
2018-Jun-15 07:30N 67°60' E 014°09'510.8
2018-Jun-15 06:59N 67°54' E 014°10'510.9
2018-Jun-15 06:30N 67°49' E 014°11'611.4
2018-Jun-15 06:00N 67°44' E 014°13'611.2
2018-Jun-15 05:30N 67°38' E 014°16'611.1
2018-Jun-15 05:00N 67°33' E 014°20'510.7
2018-Jun-15 04:30N 67°28' E 014°24'510.3
2018-Jun-15 04:00N 67°22' E 014°25'611.2
2018-Jun-15 03:30N 67°18' E 014°17'3 6.7
2018-Jun-15 03:00N 67°15' E 014°19'510.7
2018-Jun-15 02:30N 67°15' E 014°33'3 6.3
2018-Jun-15 02:00N 67°13' E 014°40'2 4.4
2018-Jun-15 01:30N 67°14' E 014°45'3 5.1
2018-Jun-15 01:00N 67°15' E 014°52'3 5.3
2018-Jun-15 00:30N 67°16' E 014°58'3 5.5
2018-Jun-15 00:00N 67°15' E 015°05'3 5.7
2018-Jun-14 23:30N 67°14' E 015°12'3 5.4
2018-Jun-14 23:00N 67°14' E 015°19'1 1.5
2018-Jun-14 22:29N 67°14' E 015°21'0 0.0
2018-Jun-14 22:00N 67°14' E 015°21'3 5.2
2018-Jun-14 21:30N 67°14' E 015°15'4 8.7
2018-Jun-14 21:00N 67°15' E 015°04'4 8.3
2018-Jun-14 20:30N 67°15' E 014°53'5 9.5
2018-Jun-14 20:01N 67°13' E 014°42'3 6.8
2018-Jun-14 19:30N 67°16' E 014°35'1 1.6
2018-Jun-14 19:00N 67°16' E 014°33'2 3.5
2018-Jun-14 18:30N 67°15' E 014°29'3 5.1
2018-Jun-14 18:00N 67°14' E 014°23'2 4.7
2018-Jun-14 17:30N 67°13' E 014°18'2 4.4
2018-Jun-14 17:00N 67°12' E 014°13'2 5.0
2018-Jun-14 16:30N 67°11' E 014°07'5 8.7
2018-Jun-14 15:59N 67°07' E 014°00'510.1
2018-Jun-14 15:30N 67°03' E 013°52'5 9.5
2018-Jun-14 15:00N 67°01' E 013°42'5 9.3
2018-Jun-14 14:30N 66°58' E 013°32'4 8.2
2018-Jun-14 14:00N 66°54' E 013°31'4 8.9
2018-Jun-14 13:30N 66°50' E 013°33'2 3.9
2018-Jun-14 13:00N 66°49' E 013°28'1 2.3
2018-Jun-14 12:30N 66°49' E 013°31'3 6.8
2018-Jun-14 12:00N 66°52' E 013°36'0 0.0
2018-Jun-14 11:30N 66°52' E 013°36'0 0.1
2018-Jun-14 11:00N 66°52' E 013°36'3 6.6
2018-Jun-14 10:29N 66°55' E 013°30'4 8.0
2018-Jun-14 10:00N 66°58' E 013°34'510.5
2018-Jun-14 09:30N 67°01' E 013°45'510.3
2018-Jun-14 09:00N 67°05' E 013°55'5 9.8
2018-Jun-14 08:30N 67°09' E 014°02'510.4
2018-Jun-14 08:00N 67°13' E 014°08'510.6
2018-Jun-14 07:30N 67°18' E 014°15'510.4
2018-Jun-14 07:00N 67°23' E 014°22'1 1.4
2018-Jun-14 06:30N 67°23' E 014°23'0 0.0
2018-Jun-14 06:00N 67°23' E 014°23'0 0.2
2018-Jun-14 05:31N 67°23' E 014°23'2 3.9
2018-Jun-14 05:00N 67°25' E 014°25'0 0.0
2018-Jun-14 04:30N 67°25' E 014°25'0 0.0
2018-Jun-14 04:00N 67°25' E 014°25'4 7.3
2018-Jun-14 03:30N 67°26' E 014°34'3 6.7
2018-Jun-14 03:00N 67°26' E 014°43'0 0.0
2018-Jun-14 02:30N 67°26' E 014°43'0 0.0
2018-Jun-14 02:00N 67°26' E 014°43'0 0.0
2018-Jun-14 01:30N 67°26' E 014°43'1 2.9
2018-Jun-14 01:00N 67°27' E 014°40'5 9.6
2018-Jun-14 00:30N 67°31' E 014°32'510.2
2018-Jun-14 00:00N 67°36' E 014°31'510.4
2018-Jun-13 23:30N 67°41' E 014°31'510.5
2018-Jun-13 23:00N 67°47' E 014°32'4 8.7
2018-Jun-13 22:30N 67°50' E 014°38'5 9.4
2018-Jun-13 21:59N 67°54' E 014°44'5 9.8
2018-Jun-13 21:30N 67°58' E 014°52'510.0
2018-Jun-13 21:00N 68°02' E 015°02'510.1
2018-Jun-13 20:30N 68°05' E 015°12'510.4
2018-Jun-13 19:59N 68°08' E 015°23'510.3
2018-Jun-13 19:30N 68°11' E 015°34'510.5
2018-Jun-13 18:59N 68°14' E 015°46'510.5
2018-Jun-13 18:29N 68°16' E 015°59'5 9.7
2018-Jun-13 18:00N 68°13' E 016°08'510.3
2018-Jun-13 17:30N 68°08' E 016°10'510.1
2018-Jun-13 17:00N 68°03' E 016°09'510.3
2018-Jun-13 16:30N 67°58' E 016°14'5 9.3
2018-Jun-13 16:00N 67°54' E 016°14'0 0.0
2018-Jun-13 15:30N 67°54' E 016°14'0 0.0
2018-Jun-13 15:00N 67°54' E 016°14'0 0.0
2018-Jun-13 14:28N 67°54' E 016°14'0 0.2
2018-Jun-13 13:59N 67°54' E 016°14'4 8.8
2018-Jun-13 13:30N 67°58' E 016°14'510.5
2018-Jun-13 12:59N 68°03' E 016°09'510.2
2018-Jun-13 12:30N 68°08' E 016°09'510.3
2018-Jun-13 12:00N 68°13' E 016°09'510.2
2018-Jun-13 11:29N 68°18' E 016°01'510.5
2018-Jun-13 11:00N 68°23' E 016°03'510.2
2018-Jun-13 10:30N 68°28' E 016°06'4 7.8
2018-Jun-13 10:00N 68°31' E 016°07'0 0.2
2018-Jun-13 09:30N 68°31' E 016°07'0 0.0
2018-Jun-13 09:00N 68°31' E 016°07'0 0.0
2018-Jun-13 08:30N 68°31' E 016°07'4 7.2
2018-Jun-13 07:59N 68°33' E 016°16'510.3
2018-Jun-13 07:30N 68°33' E 016°30'510.7
2018-Jun-13 07:00N 68°38' E 016°36'510.5
2018-Jun-13 06:30N 68°43' E 016°41'510.3
2018-Jun-13 06:00N 68°48' E 016°41'5 9.2
2018-Jun-13 05:29N 68°52' E 016°33'510.0
2018-Jun-13 05:00N 68°54' E 016°21'1 2.6
2018-Jun-13 04:30N 68°55' E 016°17'0 0.0
2018-Jun-13 04:00N 68°55' E 016°17'0 0.0
2018-Jun-13 03:30N 68°55' E 016°17'0 1.0
2018-Jun-13 03:00N 68°55' E 016°17'5 9.2
2018-Jun-13 02:30N 68°59' E 016°10'5 9.3
2018-Jun-13 02:00N 68°59' E 016°23'2 4.6
2018-Jun-13 01:30N 68°59' E 016°29'0 0.0
2018-Jun-13 01:00N 68°59' E 016°29'3 6.2
2018-Jun-13 00:28N 68°60' E 016°21'510.1
2018-Jun-13 00:00N 68°60' E 016°07'510.4
2018-Jun-12 23:30N 68°59' E 015°53'5 9.7
2018-Jun-12 23:00N 68°58' E 015°40'5 9.2
2018-Jun-12 22:30N 68°54' E 015°34'3 6.6
2018-Jun-12 22:00N 68°53' E 015°25'510.5
2018-Jun-12 21:30N 68°59' E 015°22'5 9.2
2018-Jun-12 20:59N 69°02' E 015°12'4 9.1
2018-Jun-12 20:30N 69°01' E 015°00'5 9.5
2018-Jun-12 20:00N 68°56' E 014°59'2 4.0
2018-Jun-12 19:30N 68°55' E 015°04'0 0.0
2018-Jun-12 19:00N 68°55' E 015°04'0 0.0
2018-Jun-12 18:30N 68°55' E 015°04'0 0.0
2018-Jun-12 18:00N 68°55' E 015°04'0 0.0
2018-Jun-12 17:29N 68°55' E 015°04'0 0.0
2018-Jun-12 17:00N 68°55' E 015°04'0 0.0
2018-Jun-12 16:30N 68°55' E 015°04'0 0.0
2018-Jun-12 16:00N 68°55' E 015°04'0 0.0
2018-Jun-12 15:29N 68°55' E 015°04'0 0.0
2018-Jun-12 15:00N 68°55' E 015°04'0 0.0
2018-Jun-12 14:30N 68°55' E 015°04'0 0.0
2018-Jun-12 14:00N 68°55' E 015°04'0 0.0
2018-Jun-12 13:30N 68°55' E 015°04'0 0.1
2018-Jun-12 13:00N 68°55' E 015°04'0 0.2
2018-Jun-12 12:30N 68°55' E 015°04'0 0.2
2018-Jun-12 12:00N 68°55' E 015°04'0 0.4
2018-Jun-12 11:30N 68°55' E 015°03'1 1.3
2018-Jun-12 11:00N 68°54' E 015°03'0 0.3
2018-Jun-12 10:30N 68°54' E 015°02'0 0.0
2018-Jun-12 10:00N 68°54' E 015°02'0 0.0
2018-Jun-12 09:28N 68°54' E 015°02'0 0.0
2018-Jun-12 09:00N 68°54' E 015°02'0 0.0
2018-Jun-12 08:30N 68°54' E 015°02'0 0.0
2018-Jun-12 07:59N 68°54' E 015°02'0 0.0
2018-Jun-12 07:30N 68°54' E 015°02'0 0.0
2018-Jun-12 07:00N 68°54' E 015°02'0 0.0
2018-Jun-12 06:30N 68°54' E 015°02'1 1.5
2018-Jun-12 06:00N 68°55' E 015°04'0 0.0
2018-Jun-12 05:30N 68°55' E 015°04'0 0.0
2018-Jun-12 04:59N 68°55' E 015°04'0 0.0
2018-Jun-12 04:30N 68°55' E 015°04'0 0.0
2018-Jun-12 04:00N 68°55' E 015°04'0 0.0
2018-Jun-12 03:30N 68°55' E 015°04'0 0.0
2018-Jun-12 03:00N 68°55' E 015°04'0 0.0
2018-Jun-12 02:30N 68°55' E 015°04'0 0.0
2018-Jun-12 01:59N 68°55' E 015°04'0 0.0
2018-Jun-12 01:30N 68°55' E 015°04'0 0.0
2018-Jun-12 01:00N 68°55' E 015°04'0 0.0
2018-Jun-12 00:30N 68°55' E 015°04'0 0.0
2018-Jun-12 00:00N 68°55' E 015°04'0 0.0
2018-Jun-11 23:30N 68°55' E 015°04'0 0.0
2018-Jun-11 22:59N 68°55' E 015°04'0 0.0
2018-Jun-11 22:29N 68°55' E 015°04'0 0.0
2018-Jun-11 22:00N 68°55' E 015°04'0 0.0
2018-Jun-11 21:30N 68°55' E 015°04'1 1.4
2018-Jun-11 21:00N 68°55' E 015°02'510.0
2018-Jun-11 20:29N 69°00' E 014°59'5 9.9
2018-Jun-11 20:00N 69°03' E 015°10'510.7
2018-Jun-11 19:30N 69°07' E 015°20'510.6
2018-Jun-11 18:59N 69°11' E 015°29'510.4
2018-Jun-11 18:30N 69°15' E 015°38'510.1
2018-Jun-11 18:00N 69°19' E 015°47'5 9.9
2018-Jun-11 17:30N 69°22' E 015°58'5 9.5
2018-Jun-11 17:00N 69°25' E 016°09'5 9.6
2018-Jun-11 16:30N 69°27' E 016°21'5 9.8
2018-Jun-11 16:00N 69°29' E 016°33'510.0
2018-Jun-11 15:28N 69°32' E 016°47'4 9.4
2018-Jun-11 15:00N 69°34' E 016°58'5 9.3
2018-Jun-11 14:30N 69°36' E 017°10'4 9.1
2018-Jun-11 14:00N 69°37' E 017°22'4 8.6
2018-Jun-11 13:30N 69°39' E 017°34'4 8.6
2018-Jun-11 13:00N 69°38' E 017°46'510.2
2018-Jun-11 12:30N 69°35' E 017°57'510.7
2018-Jun-11 12:00N 69°31' E 018°09'510.8
2018-Jun-11 11:30N 69°32' E 018°24'510.2
2018-Jun-11 11:00N 69°33' E 018°38'510.5
2018-Jun-11 10:30N 69°35' E 018°51'510.4
2018-Jun-11 10:00N 69°40' E 018°60'3 5.4
2018-Jun-11 09:30N 69°42' E 019°04'0 0.0
2018-Jun-11 09:00N 69°42' E 019°04'0 0.0
2018-Jun-11 08:29N 69°42' E 019°04'0 0.0
2018-Jun-11 08:00N 69°42' E 019°04'0 0.0
2018-Jun-11 07:30N 69°42' E 019°04'1 2.3
2018-Jun-11 07:00N 69°43' E 019°04'5 9.6
2018-Jun-11 06:30N 69°47' E 019°14'5 9.9
2018-Jun-11 06:00N 69°49' E 019°27'5 9.8
2018-Jun-11 05:29N 69°51' E 019°40'5 9.8
2018-Jun-11 05:00N 69°53' E 019°52'5 9.9
2018-Jun-11 04:30N 69°56' E 020°04'  

Dump ship's entire track history